<?xml version="1.0" encoding="UTF-8" standalone="no" ?>
<gpx xmlns="http://www.topografix.com/GPX/1/1" xmlns:xsi="http://www.w3.org/2001/XMLSchema-instance" xsi:schemaLocation="http://www.topografix.com/GPX/1/1 http://www.topografix.com/GPX/1/1/gpx.xsd" version="1.1" creator="VisuGPX - https://www.visugpx.com">
  <metadata>
    <name>Chaudes-Aigues La Croix De Prunières</name>
    <desc><![CDATA[Bonus la vidéo de la rando : 
https://youtu.be/YJf_wwzI0Vo]]></desc>
  </metadata>
  <wpt lat="44.85568" lon="3.00695">
    <ele>744</ele>
    <name><![CDATA[Départ]]></name>
    <type><![CDATA[GENERIC]]></type>
  </wpt>
  <wpt lat="44.85569" lon="3.00697">
    <ele>744</ele>
    <name><![CDATA[Arrivée ]]></name>
    <type><![CDATA[GENERIC]]></type>
  </wpt>
  <trk>
    <name><![CDATA[Chaudes-Aigues La Croix De Prunières]]></name>
    <trkseg>
      <trkpt lat="44.85568" lon="3.00695">
        <ele>744</ele>
        <time>2026-07-02T07:27:49.000Z</time>
      </trkpt>
      <trkpt lat="44.85554" lon="3.00665">
        <ele>744</ele>
        <time>2026-07-02T07:28:18.000Z</time>
      </trkpt>
      <trkpt lat="44.85547" lon="3.00631">
        <ele>745</ele>
        <time>2026-07-02T07:28:57.000Z</time>
      </trkpt>
      <trkpt lat="44.85532" lon="3.00614">
        <ele>745</ele>
        <time>2026-07-02T07:29:20.000Z</time>
      </trkpt>
      <trkpt lat="44.85505" lon="3.00574">
        <ele>744</ele>
        <time>2026-07-02T07:30:04.000Z</time>
      </trkpt>
      <trkpt lat="44.85427" lon="3.00455">
        <ele>749</ele>
        <time>2026-07-02T07:33:08.000Z</time>
      </trkpt>
      <trkpt lat="44.85401" lon="3.00427">
        <ele>749</ele>
        <time>2026-07-02T07:33:45.000Z</time>
      </trkpt>
      <trkpt lat="44.85401" lon="3.00427">
        <ele>749</ele>
        <time>2026-07-02T07:33:45.000Z</time>
      </trkpt>
      <trkpt lat="44.85426" lon="3.00377">
        <ele>753</ele>
        <time>2026-07-02T07:35:15.000Z</time>
      </trkpt>
      <trkpt lat="44.85433" lon="3.00337">
        <ele>758</ele>
        <time>2026-07-02T07:36:40.000Z</time>
      </trkpt>
      <trkpt lat="44.85431" lon="3.00309">
        <ele>763</ele>
        <time>2026-07-02T07:37:55.000Z</time>
      </trkpt>
      <trkpt lat="44.85413" lon="3.00248">
        <ele>771</ele>
        <time>2026-07-02T07:40:11.000Z</time>
      </trkpt>
      <trkpt lat="44.85387" lon="3.00225">
        <ele>775</ele>
        <time>2026-07-02T07:41:27.000Z</time>
      </trkpt>
      <trkpt lat="44.85394" lon="3.00233">
        <ele>775</ele>
        <time>2026-07-02T07:41:37.000Z</time>
      </trkpt>
      <trkpt lat="44.85401" lon="3.00235">
        <ele>774</ele>
        <time>2026-07-02T07:41:45.000Z</time>
      </trkpt>
      <trkpt lat="44.85413" lon="3.00248">
        <ele>771</ele>
        <time>2026-07-02T07:42:02.000Z</time>
      </trkpt>
      <trkpt lat="44.85431" lon="3.00309">
        <ele>763</ele>
        <time>2026-07-02T07:42:56.000Z</time>
      </trkpt>
      <trkpt lat="44.85432" lon="3.00323">
        <ele>760</ele>
        <time>2026-07-02T07:43:07.000Z</time>
      </trkpt>
      <trkpt lat="44.85492" lon="3.00343">
        <ele>764</ele>
        <time>2026-07-02T07:44:58.000Z</time>
      </trkpt>
      <trkpt lat="44.85497" lon="3.00339">
        <ele>764</ele>
        <time>2026-07-02T07:45:04.000Z</time>
      </trkpt>
      <trkpt lat="44.85506" lon="3.00328">
        <ele>766</ele>
        <time>2026-07-02T07:45:38.000Z</time>
      </trkpt>
      <trkpt lat="44.85511" lon="3.00303">
        <ele>768</ele>
        <time>2026-07-02T07:46:20.000Z</time>
      </trkpt>
      <trkpt lat="44.85532" lon="3.00255">
        <ele>772</ele>
        <time>2026-07-02T07:47:47.000Z</time>
      </trkpt>
      <trkpt lat="44.85532" lon="3.00249">
        <ele>772</ele>
        <time>2026-07-02T07:47:52.000Z</time>
      </trkpt>
      <trkpt lat="44.85546" lon="3.00226">
        <ele>777</ele>
        <time>2026-07-02T07:49:08.000Z</time>
      </trkpt>
      <trkpt lat="44.85568" lon="3.002">
        <ele>777</ele>
        <time>2026-07-02T07:49:41.000Z</time>
      </trkpt>
      <trkpt lat="44.85589" lon="3.00174">
        <ele>782</ele>
        <time>2026-07-02T07:51:05.000Z</time>
      </trkpt>
      <trkpt lat="44.85618" lon="3.0015">
        <ele>784</ele>
        <time>2026-07-02T07:52:04.000Z</time>
      </trkpt>
      <trkpt lat="44.85683" lon="3.00123">
        <ele>788</ele>
        <time>2026-07-02T07:54:03.000Z</time>
      </trkpt>
      <trkpt lat="44.85708" lon="3.00104">
        <ele>788</ele>
        <time>2026-07-02T07:54:36.000Z</time>
      </trkpt>
      <trkpt lat="44.8574" lon="3.0009">
        <ele>790</ele>
        <time>2026-07-02T07:55:35.000Z</time>
      </trkpt>
      <trkpt lat="44.85776" lon="3.0006">
        <ele>792</ele>
        <time>2026-07-02T07:56:43.000Z</time>
      </trkpt>
      <trkpt lat="44.85783" lon="3.0006">
        <ele>792</ele>
        <time>2026-07-02T07:56:51.000Z</time>
      </trkpt>
      <trkpt lat="44.85791" lon="3.00077">
        <ele>793</ele>
        <time>2026-07-02T07:57:18.000Z</time>
      </trkpt>
      <trkpt lat="44.85788" lon="3.00109">
        <ele>795</ele>
        <time>2026-07-02T07:58:05.000Z</time>
      </trkpt>
      <trkpt lat="44.85793" lon="3.00129">
        <ele>798</ele>
        <time>2026-07-02T07:58:53.000Z</time>
      </trkpt>
      <trkpt lat="44.85793" lon="3.0014">
        <ele>800</ele>
        <time>2026-07-02T07:59:22.000Z</time>
      </trkpt>
      <trkpt lat="44.85774" lon="3.00166">
        <ele>804</ele>
        <time>2026-07-02T08:00:34.000Z</time>
      </trkpt>
      <trkpt lat="44.85773" lon="3.00172">
        <ele>806</ele>
        <time>2026-07-02T08:01:00.000Z</time>
      </trkpt>
      <trkpt lat="44.85761" lon="3.00193">
        <ele>808</ele>
        <time>2026-07-02T08:01:43.000Z</time>
      </trkpt>
      <trkpt lat="44.85728" lon="3.00234">
        <ele>812</ele>
        <time>2026-07-02T08:03:14.000Z</time>
      </trkpt>
      <trkpt lat="44.85714" lon="3.00258">
        <ele>814</ele>
        <time>2026-07-02T08:04:00.000Z</time>
      </trkpt>
      <trkpt lat="44.85698" lon="3.00297">
        <ele>815</ele>
        <time>2026-07-02T08:04:47.000Z</time>
      </trkpt>
      <trkpt lat="44.857" lon="3.00302">
        <ele>816</ele>
        <time>2026-07-02T08:05:02.000Z</time>
      </trkpt>
      <trkpt lat="44.85716" lon="3.00276">
        <ele>819</ele>
        <time>2026-07-02T08:06:01.000Z</time>
      </trkpt>
      <trkpt lat="44.8579" lon="3.00231">
        <ele>829</ele>
        <time>2026-07-02T08:09:17.000Z</time>
      </trkpt>
      <trkpt lat="44.85818" lon="3.00223">
        <ele>833</ele>
        <time>2026-07-02T08:10:31.000Z</time>
      </trkpt>
      <trkpt lat="44.85834" lon="3.00201">
        <ele>838</ele>
        <time>2026-07-02T08:11:48.000Z</time>
      </trkpt>
      <trkpt lat="44.8584" lon="3.00197">
        <ele>838</ele>
        <time>2026-07-02T08:11:56.000Z</time>
      </trkpt>
      <trkpt lat="44.85867" lon="3.00188">
        <ele>843</ele>
        <time>2026-07-02T08:13:18.000Z</time>
      </trkpt>
      <trkpt lat="44.85933" lon="3.00185">
        <ele>853</ele>
        <time>2026-07-02T08:16:17.000Z</time>
      </trkpt>
      <trkpt lat="44.85957" lon="3.00176">
        <ele>855</ele>
        <time>2026-07-02T08:17:06.000Z</time>
      </trkpt>
      <trkpt lat="44.85957" lon="3.00176">
        <ele>855</ele>
        <time>2026-07-02T08:17:06.000Z</time>
      </trkpt>
      <trkpt lat="44.85969" lon="3.00163">
        <ele>858</ele>
        <time>2026-07-02T08:17:54.000Z</time>
      </trkpt>
      <trkpt lat="44.85982" lon="3.00123">
        <ele>863</ele>
        <time>2026-07-02T08:19:21.000Z</time>
      </trkpt>
      <trkpt lat="44.85983" lon="3.00102">
        <ele>865</ele>
        <time>2026-07-02T08:19:58.000Z</time>
      </trkpt>
      <trkpt lat="44.85975" lon="3.00072">
        <ele>869</ele>
        <time>2026-07-02T08:21:06.000Z</time>
      </trkpt>
      <trkpt lat="44.8598" lon="3.00046">
        <ele>871</ele>
        <time>2026-07-02T08:21:49.000Z</time>
      </trkpt>
      <trkpt lat="44.85996" lon="3.00031">
        <ele>872</ele>
        <time>2026-07-02T08:22:21.000Z</time>
      </trkpt>
      <trkpt lat="44.86026" lon="3.00036">
        <ele>875</ele>
        <time>2026-07-02T08:23:26.000Z</time>
      </trkpt>
      <trkpt lat="44.86047" lon="3.00045">
        <ele>877</ele>
        <time>2026-07-02T08:24:11.000Z</time>
      </trkpt>
      <trkpt lat="44.86066" lon="3.00041">
        <ele>878</ele>
        <time>2026-07-02T08:24:44.000Z</time>
      </trkpt>
      <trkpt lat="44.86098" lon="3.00012">
        <ele>882</ele>
        <time>2026-07-02T08:26:09.000Z</time>
      </trkpt>
      <trkpt lat="44.8613" lon="2.99982">
        <ele>892</ele>
        <time>2026-07-02T08:28:35.000Z</time>
      </trkpt>
      <trkpt lat="44.86169" lon="2.99927">
        <ele>901</ele>
        <time>2026-07-02T08:31:11.000Z</time>
      </trkpt>
      <trkpt lat="44.86203" lon="2.99891">
        <ele>909</ele>
        <time>2026-07-02T08:33:22.000Z</time>
      </trkpt>
      <trkpt lat="44.86222" lon="2.99855">
        <ele>914</ele>
        <time>2026-07-02T08:34:50.000Z</time>
      </trkpt>
      <trkpt lat="44.86251" lon="2.99842">
        <ele>919</ele>
        <time>2026-07-02T08:36:15.000Z</time>
      </trkpt>
      <trkpt lat="44.86273" lon="2.99826">
        <ele>924</ele>
        <time>2026-07-02T08:37:35.000Z</time>
      </trkpt>
      <trkpt lat="44.86272" lon="2.9982">
        <ele>924</ele>
        <time>2026-07-02T08:37:40.000Z</time>
      </trkpt>
      <trkpt lat="44.86301" lon="2.99812">
        <ele>927</ele>
        <time>2026-07-02T08:38:44.000Z</time>
      </trkpt>
      <trkpt lat="44.86317" lon="2.99803">
        <ele>928</ele>
        <time>2026-07-02T08:39:14.000Z</time>
      </trkpt>
      <trkpt lat="44.86342" lon="2.99774">
        <ele>928</ele>
        <time>2026-07-02T08:39:52.000Z</time>
      </trkpt>
      <trkpt lat="44.86342" lon="2.99774">
        <ele>928</ele>
        <time>2026-07-02T08:39:52.000Z</time>
      </trkpt>
      <trkpt lat="44.86363" lon="2.99736">
        <ele>927</ele>
        <time>2026-07-02T08:40:31.000Z</time>
      </trkpt>
      <trkpt lat="44.86407" lon="2.99627">
        <ele>927</ele>
        <time>2026-07-02T08:42:12.000Z</time>
      </trkpt>
      <trkpt lat="44.86417" lon="2.99611">
        <ele>926</ele>
        <time>2026-07-02T08:42:29.000Z</time>
      </trkpt>
      <trkpt lat="44.86456" lon="2.99579">
        <ele>928</ele>
        <time>2026-07-02T08:43:41.000Z</time>
      </trkpt>
      <trkpt lat="44.86464" lon="2.99579">
        <ele>928</ele>
        <time>2026-07-02T08:43:50.000Z</time>
      </trkpt>
      <trkpt lat="44.8648" lon="2.99594">
        <ele>926</ele>
        <time>2026-07-02T08:44:12.000Z</time>
      </trkpt>
      <trkpt lat="44.8651" lon="2.99664">
        <ele>917</ele>
        <time>2026-07-02T08:45:18.000Z</time>
      </trkpt>
      <trkpt lat="44.86535" lon="2.99712">
        <ele>911</ele>
        <time>2026-07-02T08:46:07.000Z</time>
      </trkpt>
      <trkpt lat="44.86543" lon="2.99716">
        <ele>910</ele>
        <time>2026-07-02T08:46:16.000Z</time>
      </trkpt>
      <trkpt lat="44.86605" lon="2.99723">
        <ele>901</ele>
        <time>2026-07-02T08:47:28.000Z</time>
      </trkpt>
      <trkpt lat="44.86684" lon="2.99752">
        <ele>888</ele>
        <time>2026-07-02T08:49:02.000Z</time>
      </trkpt>
      <trkpt lat="44.867" lon="2.99774">
        <ele>886</ele>
        <time>2026-07-02T08:49:27.000Z</time>
      </trkpt>
      <trkpt lat="44.86711" lon="2.99798">
        <ele>880</ele>
        <time>2026-07-02T08:49:49.000Z</time>
      </trkpt>
      <trkpt lat="44.86804" lon="2.99907">
        <ele>862</ele>
        <time>2026-07-02T08:52:08.000Z</time>
      </trkpt>
      <trkpt lat="44.86804" lon="2.99896">
        <ele>866</ele>
        <time>2026-07-02T08:52:58.000Z</time>
      </trkpt>
      <trkpt lat="44.86805" lon="2.99896">
        <ele>866</ele>
        <time>2026-07-02T08:52:58.000Z</time>
      </trkpt>
      <trkpt lat="44.8681" lon="2.99831">
        <ele>877</ele>
        <time>2026-07-02T08:55:44.000Z</time>
      </trkpt>
      <trkpt lat="44.86807" lon="2.9975">
        <ele>888</ele>
        <time>2026-07-02T08:58:42.000Z</time>
      </trkpt>
      <trkpt lat="44.868" lon="2.99686">
        <ele>894</ele>
        <time>2026-07-02T09:00:36.000Z</time>
      </trkpt>
      <trkpt lat="44.86733" lon="2.99558">
        <ele>912</ele>
        <time>2026-07-02T09:05:51.000Z</time>
      </trkpt>
      <trkpt lat="44.86716" lon="2.99533">
        <ele>915</ele>
        <time>2026-07-02T09:06:49.000Z</time>
      </trkpt>
      <trkpt lat="44.86696" lon="2.99512">
        <ele>919</ele>
        <time>2026-07-02T09:07:58.000Z</time>
      </trkpt>
      <trkpt lat="44.86658" lon="2.99499">
        <ele>922</ele>
        <time>2026-07-02T09:09:14.000Z</time>
      </trkpt>
      <trkpt lat="44.86646" lon="2.99489">
        <ele>923</ele>
        <time>2026-07-02T09:09:41.000Z</time>
      </trkpt>
      <trkpt lat="44.86632" lon="2.9947">
        <ele>923</ele>
        <time>2026-07-02T09:10:03.000Z</time>
      </trkpt>
      <trkpt lat="44.86591" lon="2.99378">
        <ele>927</ele>
        <time>2026-07-02T09:12:12.000Z</time>
      </trkpt>
      <trkpt lat="44.86573" lon="2.99352">
        <ele>928</ele>
        <time>2026-07-02T09:12:53.000Z</time>
      </trkpt>
      <trkpt lat="44.8658" lon="2.99308">
        <ele>926</ele>
        <time>2026-07-02T09:13:29.000Z</time>
      </trkpt>
      <trkpt lat="44.86593" lon="2.99275">
        <ele>925</ele>
        <time>2026-07-02T09:14:00.000Z</time>
      </trkpt>
      <trkpt lat="44.86593" lon="2.99275">
        <ele>925</ele>
        <time>2026-07-02T09:14:00.000Z</time>
      </trkpt>
      <trkpt lat="44.86606" lon="2.99255">
        <ele>924</ele>
        <time>2026-07-02T09:14:22.000Z</time>
      </trkpt>
      <trkpt lat="44.86709" lon="2.99145">
        <ele>913</ele>
        <time>2026-07-02T09:16:50.000Z</time>
      </trkpt>
      <trkpt lat="44.86769" lon="2.99073">
        <ele>910</ele>
        <time>2026-07-02T09:18:19.000Z</time>
      </trkpt>
      <trkpt lat="44.86829" lon="2.99017">
        <ele>906</ele>
        <time>2026-07-02T09:19:42.000Z</time>
      </trkpt>
      <trkpt lat="44.86879" lon="2.98947">
        <ele>898</ele>
        <time>2026-07-02T09:21:02.000Z</time>
      </trkpt>
      <trkpt lat="44.86908" lon="2.98884">
        <ele>890</ele>
        <time>2026-07-02T09:22:03.000Z</time>
      </trkpt>
      <trkpt lat="44.86916" lon="2.98837">
        <ele>885</ele>
        <time>2026-07-02T09:22:43.000Z</time>
      </trkpt>
      <trkpt lat="44.86912" lon="2.98768">
        <ele>880</ele>
        <time>2026-07-02T09:23:39.000Z</time>
      </trkpt>
      <trkpt lat="44.86894" lon="2.98698">
        <ele>875</ele>
        <time>2026-07-02T09:24:40.000Z</time>
      </trkpt>
      <trkpt lat="44.86896" lon="2.98675">
        <ele>874</ele>
        <time>2026-07-02T09:24:59.000Z</time>
      </trkpt>
      <trkpt lat="44.86917" lon="2.98649">
        <ele>871</ele>
        <time>2026-07-02T09:25:31.000Z</time>
      </trkpt>
      <trkpt lat="44.86938" lon="2.98631">
        <ele>869</ele>
        <time>2026-07-02T09:25:59.000Z</time>
      </trkpt>
      <trkpt lat="44.86938" lon="2.98631">
        <ele>869</ele>
        <time>2026-07-02T09:25:59.000Z</time>
      </trkpt>
      <trkpt lat="44.86958" lon="2.98617">
        <ele>868</ele>
        <time>2026-07-02T09:26:24.000Z</time>
      </trkpt>
      <trkpt lat="44.86996" lon="2.98601">
        <ele>866</ele>
        <time>2026-07-02T09:27:10.000Z</time>
      </trkpt>
      <trkpt lat="44.87045" lon="2.98589">
        <ele>865</ele>
        <time>2026-07-02T09:28:07.000Z</time>
      </trkpt>
      <trkpt lat="44.87319" lon="2.98585">
        <ele>866</ele>
        <time>2026-07-02T09:33:31.000Z</time>
      </trkpt>
      <trkpt lat="44.87378" lon="2.98601">
        <ele>868</ele>
        <time>2026-07-02T09:35:01.000Z</time>
      </trkpt>
      <trkpt lat="44.87378" lon="2.98601">
        <ele>868</ele>
        <time>2026-07-02T09:35:01.000Z</time>
      </trkpt>
      <trkpt lat="44.87415" lon="2.98619">
        <ele>870</ele>
        <time>2026-07-02T09:36:06.000Z</time>
      </trkpt>
      <trkpt lat="44.87466" lon="2.98657">
        <ele>866</ele>
        <time>2026-07-02T09:37:12.000Z</time>
      </trkpt>
      <trkpt lat="44.87498" lon="2.98683">
        <ele>864</ele>
        <time>2026-07-02T09:37:55.000Z</time>
      </trkpt>
      <trkpt lat="44.87559" lon="2.98743">
        <ele>860</ele>
        <time>2026-07-02T09:39:20.000Z</time>
      </trkpt>
      <trkpt lat="44.87559" lon="2.98743">
        <ele>860</ele>
        <time>2026-07-02T09:39:20.000Z</time>
      </trkpt>
      <trkpt lat="44.876" lon="2.98795">
        <ele>855</ele>
        <time>2026-07-02T09:40:23.000Z</time>
      </trkpt>
      <trkpt lat="44.87638" lon="2.98833">
        <ele>852</ele>
        <time>2026-07-02T09:41:16.000Z</time>
      </trkpt>
      <trkpt lat="44.87689" lon="2.98906">
        <ele>848</ele>
        <time>2026-07-02T09:42:40.000Z</time>
      </trkpt>
      <trkpt lat="44.87749" lon="2.98972">
        <ele>850</ele>
        <time>2026-07-02T09:44:28.000Z</time>
      </trkpt>
      <trkpt lat="44.87746" lon="2.9902">
        <ele>850</ele>
        <time>2026-07-02T09:45:07.000Z</time>
      </trkpt>
      <trkpt lat="44.87747" lon="2.99037">
        <ele>850</ele>
        <time>2026-07-02T09:45:21.000Z</time>
      </trkpt>
      <trkpt lat="44.87765" lon="2.99101">
        <ele>844</ele>
        <time>2026-07-02T09:46:17.000Z</time>
      </trkpt>
      <trkpt lat="44.8778" lon="2.99118">
        <ele>840</ele>
        <time>2026-07-02T09:46:38.000Z</time>
      </trkpt>
      <trkpt lat="44.87825" lon="2.9913">
        <ele>832</ele>
        <time>2026-07-02T09:47:31.000Z</time>
      </trkpt>
      <trkpt lat="44.87838" lon="2.99137">
        <ele>831</ele>
        <time>2026-07-02T09:47:47.000Z</time>
      </trkpt>
      <trkpt lat="44.87838" lon="2.99137">
        <ele>831</ele>
        <time>2026-07-02T09:47:47.000Z</time>
      </trkpt>
      <trkpt lat="44.87857" lon="2.99223">
        <ele>819</ele>
        <time>2026-07-02T09:49:00.000Z</time>
      </trkpt>
      <trkpt lat="44.87865" lon="2.99238">
        <ele>818</ele>
        <time>2026-07-02T09:49:15.000Z</time>
      </trkpt>
      <trkpt lat="44.87867" lon="2.9925">
        <ele>815</ele>
        <time>2026-07-02T09:49:25.000Z</time>
      </trkpt>
      <trkpt lat="44.87864" lon="2.99326">
        <ele>801</ele>
        <time>2026-07-02T09:50:27.000Z</time>
      </trkpt>
      <trkpt lat="44.87869" lon="2.99339">
        <ele>799</ele>
        <time>2026-07-02T09:50:39.000Z</time>
      </trkpt>
      <trkpt lat="44.87896" lon="2.99374">
        <ele>793</ele>
        <time>2026-07-02T09:51:20.000Z</time>
      </trkpt>
      <trkpt lat="44.87896" lon="2.99374">
        <ele>793</ele>
        <time>2026-07-02T09:51:20.000Z</time>
      </trkpt>
      <trkpt lat="44.87901" lon="2.99381">
        <ele>791</ele>
        <time>2026-07-02T09:51:28.000Z</time>
      </trkpt>
      <trkpt lat="44.87861" lon="2.99391">
        <ele>783</ele>
        <time>2026-07-02T09:52:14.000Z</time>
      </trkpt>
      <trkpt lat="44.8783" lon="2.99382">
        <ele>776</ele>
        <time>2026-07-02T09:52:51.000Z</time>
      </trkpt>
      <trkpt lat="44.8784" lon="2.99414">
        <ele>772</ele>
        <time>2026-07-02T09:53:20.000Z</time>
      </trkpt>
      <trkpt lat="44.87849" lon="2.99427">
        <ele>769</ele>
        <time>2026-07-02T09:53:34.000Z</time>
      </trkpt>
      <trkpt lat="44.87877" lon="2.99447">
        <ele>765</ele>
        <time>2026-07-02T09:54:10.000Z</time>
      </trkpt>
      <trkpt lat="44.87909" lon="2.99452">
        <ele>760</ele>
        <time>2026-07-02T09:54:47.000Z</time>
      </trkpt>
      <trkpt lat="44.87943" lon="2.99484">
        <ele>749</ele>
        <time>2026-07-02T09:55:34.000Z</time>
      </trkpt>
      <trkpt lat="44.87955" lon="2.99489">
        <ele>746</ele>
        <time>2026-07-02T09:55:48.000Z</time>
      </trkpt>
      <trkpt lat="44.87955" lon="2.9949">
        <ele>746</ele>
        <time>2026-07-02T09:55:48.000Z</time>
      </trkpt>
      <trkpt lat="44.87964" lon="2.99493">
        <ele>744</ele>
        <time>2026-07-02T09:55:59.000Z</time>
      </trkpt>
      <trkpt lat="44.88001" lon="2.99493">
        <ele>739</ele>
        <time>2026-07-02T09:56:41.000Z</time>
      </trkpt>
      <trkpt lat="44.88036" lon="2.99482">
        <ele>731</ele>
        <time>2026-07-02T09:57:22.000Z</time>
      </trkpt>
      <trkpt lat="44.88056" lon="2.99484">
        <ele>728</ele>
        <time>2026-07-02T09:57:45.000Z</time>
      </trkpt>
      <trkpt lat="44.88056" lon="2.99484">
        <ele>728</ele>
        <time>2026-07-02T09:57:45.000Z</time>
      </trkpt>
      <trkpt lat="44.88154" lon="2.99564">
        <ele>700</ele>
        <time>2026-07-02T09:59:55.000Z</time>
      </trkpt>
      <trkpt lat="44.88252" lon="2.99584">
        <ele>674</ele>
        <time>2026-07-02T10:01:49.000Z</time>
      </trkpt>
      <trkpt lat="44.88251" lon="2.99593">
        <ele>668</ele>
        <time>2026-07-02T07:27:49.000Z</time>
      </trkpt>
      <trkpt lat="44.88252" lon="2.99584">
        <ele>674</ele>
        <time>2026-07-02T07:28:58.000Z</time>
      </trkpt>
      <trkpt lat="44.88282" lon="2.9959">
        <ele>667</ele>
        <time>2026-07-02T07:29:33.000Z</time>
      </trkpt>
      <trkpt lat="44.88293" lon="2.99588">
        <ele>662</ele>
        <time>2026-07-02T07:29:45.000Z</time>
      </trkpt>
      <trkpt lat="44.88367" lon="2.99542">
        <ele>661</ele>
        <time>2026-07-02T07:31:18.000Z</time>
      </trkpt>
      <trkpt lat="44.88379" lon="2.9953">
        <ele>658</ele>
        <time>2026-07-02T07:31:35.000Z</time>
      </trkpt>
      <trkpt lat="44.884" lon="2.99502">
        <ele>656</ele>
        <time>2026-07-02T07:32:08.000Z</time>
      </trkpt>
      <trkpt lat="44.88421" lon="2.99475">
        <ele>646</ele>
        <time>2026-07-02T07:32:41.000Z</time>
      </trkpt>
      <trkpt lat="44.88423" lon="2.99479">
        <ele>646</ele>
        <time>2026-07-02T07:32:46.000Z</time>
      </trkpt>
      <trkpt lat="44.88425" lon="2.99481">
        <ele>645</ele>
        <time>2026-07-02T07:32:48.000Z</time>
      </trkpt>
      <trkpt lat="44.88446" lon="2.99511">
        <ele>648</ele>
        <time>2026-07-02T07:33:54.000Z</time>
      </trkpt>
      <trkpt lat="44.88504" lon="2.99559">
        <ele>650</ele>
        <time>2026-07-02T07:35:31.000Z</time>
      </trkpt>
      <trkpt lat="44.88533" lon="2.99582">
        <ele>647</ele>
        <time>2026-07-02T07:36:09.000Z</time>
      </trkpt>
      <trkpt lat="44.88588" lon="2.99618">
        <ele>653</ele>
        <time>2026-07-02T07:38:19.000Z</time>
      </trkpt>
      <trkpt lat="44.88612" lon="2.99625">
        <ele>653</ele>
        <time>2026-07-02T07:38:47.000Z</time>
      </trkpt>
      <trkpt lat="44.8865" lon="2.99622">
        <ele>651</ele>
        <time>2026-07-02T07:39:32.000Z</time>
      </trkpt>
      <trkpt lat="44.8865" lon="2.99622">
        <ele>651</ele>
        <time>2026-07-02T07:39:32.000Z</time>
      </trkpt>
      <trkpt lat="44.88668" lon="2.99615">
        <ele>652</ele>
        <time>2026-07-02T07:40:03.000Z</time>
      </trkpt>
      <trkpt lat="44.88694" lon="2.99587">
        <ele>650</ele>
        <time>2026-07-02T07:40:40.000Z</time>
      </trkpt>
      <trkpt lat="44.88708" lon="2.99558">
        <ele>649</ele>
        <time>2026-07-02T07:41:08.000Z</time>
      </trkpt>
      <trkpt lat="44.88718" lon="2.99536">
        <ele>649</ele>
        <time>2026-07-02T07:41:29.000Z</time>
      </trkpt>
      <trkpt lat="44.88736" lon="2.9947">
        <ele>648</ele>
        <time>2026-07-02T07:42:26.000Z</time>
      </trkpt>
      <trkpt lat="44.88745" lon="2.99448">
        <ele>647</ele>
        <time>2026-07-02T07:42:47.000Z</time>
      </trkpt>
      <trkpt lat="44.88791" lon="2.99428">
        <ele>648</ele>
        <time>2026-07-02T07:43:52.000Z</time>
      </trkpt>
      <trkpt lat="44.88791" lon="2.99428">
        <ele>648</ele>
        <time>2026-07-02T07:43:52.000Z</time>
      </trkpt>
      <trkpt lat="44.88809" lon="2.99428">
        <ele>648</ele>
        <time>2026-07-02T07:44:13.000Z</time>
      </trkpt>
      <trkpt lat="44.88852" lon="2.99437">
        <ele>647</ele>
        <time>2026-07-02T07:45:02.000Z</time>
      </trkpt>
      <trkpt lat="44.8889" lon="2.9945">
        <ele>647</ele>
        <time>2026-07-02T07:45:48.000Z</time>
      </trkpt>
      <trkpt lat="44.88905" lon="2.99463">
        <ele>647</ele>
        <time>2026-07-02T07:46:07.000Z</time>
      </trkpt>
      <trkpt lat="44.88906" lon="2.9946">
        <ele>646</ele>
        <time>2026-07-02T07:42:58.000Z</time>
      </trkpt>
      <trkpt lat="44.88905" lon="2.99463">
        <ele>647</ele>
        <time>2026-07-02T07:43:12.000Z</time>
      </trkpt>
      <trkpt lat="44.88917" lon="2.99486">
        <ele>649</ele>
        <time>2026-07-02T07:43:56.000Z</time>
      </trkpt>
      <trkpt lat="44.88948" lon="2.99593">
        <ele>657</ele>
        <time>2026-07-02T07:46:52.000Z</time>
      </trkpt>
      <trkpt lat="44.8897" lon="2.99579">
        <ele>646</ele>
        <time>2026-07-02T07:47:20.000Z</time>
      </trkpt>
      <trkpt lat="44.88992" lon="2.99565">
        <ele>643</ele>
        <time>2026-07-02T07:47:48.000Z</time>
      </trkpt>
      <trkpt lat="44.88992" lon="2.99565">
        <ele>643</ele>
        <time>2026-07-02T07:47:48.000Z</time>
      </trkpt>
      <trkpt lat="44.88966" lon="2.99581">
        <ele>647</ele>
        <time>2026-07-02T07:49:01.000Z</time>
      </trkpt>
      <trkpt lat="44.8894" lon="2.99596">
        <ele>657</ele>
        <time>2026-07-02T07:51:16.000Z</time>
      </trkpt>
      <trkpt lat="44.8888" lon="2.99598">
        <ele>659</ele>
        <time>2026-07-02T07:52:45.000Z</time>
      </trkpt>
      <trkpt lat="44.88881" lon="2.99599">
        <ele>659</ele>
        <time>2026-07-02T07:48:13.000Z</time>
      </trkpt>
      <trkpt lat="44.8888" lon="2.99598">
        <ele>659</ele>
        <time>2026-07-02T07:48:14.000Z</time>
      </trkpt>
      <trkpt lat="44.88856" lon="2.99606">
        <ele>659</ele>
        <time>2026-07-02T07:48:43.000Z</time>
      </trkpt>
      <trkpt lat="44.88872" lon="2.99611">
        <ele>661</ele>
        <time>2026-07-02T07:49:23.000Z</time>
      </trkpt>
      <trkpt lat="44.88918" lon="2.99608">
        <ele>663</ele>
        <time>2026-07-02T07:50:36.000Z</time>
      </trkpt>
      <trkpt lat="44.88922" lon="2.99614">
        <ele>665</ele>
        <time>2026-07-02T07:51:03.000Z</time>
      </trkpt>
      <trkpt lat="44.8892" lon="2.99683">
        <ele>672</ele>
        <time>2026-07-02T07:53:11.000Z</time>
      </trkpt>
      <trkpt lat="44.88937" lon="2.99721">
        <ele>675</ele>
        <time>2026-07-02T07:54:18.000Z</time>
      </trkpt>
      <trkpt lat="44.88942" lon="2.99741">
        <ele>677</ele>
        <time>2026-07-02T07:54:56.000Z</time>
      </trkpt>
      <trkpt lat="44.88941" lon="2.99831">
        <ele>688</ele>
        <time>2026-07-02T07:58:02.000Z</time>
      </trkpt>
      <trkpt lat="44.88944" lon="2.9987">
        <ele>692</ele>
        <time>2026-07-02T07:59:15.000Z</time>
      </trkpt>
      <trkpt lat="44.88963" lon="2.99932">
        <ele>699</ele>
        <time>2026-07-02T08:01:22.000Z</time>
      </trkpt>
      <trkpt lat="44.88966" lon="2.99955">
        <ele>702</ele>
        <time>2026-07-02T08:02:12.000Z</time>
      </trkpt>
      <trkpt lat="44.88961" lon="3.00007">
        <ele>709</ele>
        <time>2026-07-02T08:04:07.000Z</time>
      </trkpt>
      <trkpt lat="44.88963" lon="3.00031">
        <ele>711</ele>
        <time>2026-07-02T08:04:47.000Z</time>
      </trkpt>
      <trkpt lat="44.88977" lon="3.00114">
        <ele>716</ele>
        <time>2026-07-02T08:06:47.000Z</time>
      </trkpt>
      <trkpt lat="44.88991" lon="3.00172">
        <ele>724</ele>
        <time>2026-07-02T08:08:59.000Z</time>
      </trkpt>
      <trkpt lat="44.89018" lon="3.00238">
        <ele>731</ele>
        <time>2026-07-02T08:11:12.000Z</time>
      </trkpt>
      <trkpt lat="44.89025" lon="3.00291">
        <ele>729</ele>
        <time>2026-07-02T08:11:56.000Z</time>
      </trkpt>
      <trkpt lat="44.89026" lon="3.00311">
        <ele>728</ele>
        <time>2026-07-02T08:12:12.000Z</time>
      </trkpt>
      <trkpt lat="44.8902" lon="3.00353">
        <ele>727</ele>
        <time>2026-07-02T08:12:47.000Z</time>
      </trkpt>
      <trkpt lat="44.89029" lon="3.00463">
        <ele>728</ele>
        <time>2026-07-02T08:14:27.000Z</time>
      </trkpt>
      <trkpt lat="44.8901" lon="3.00495">
        <ele>733</ele>
        <time>2026-07-02T08:15:52.000Z</time>
      </trkpt>
      <trkpt lat="44.88991" lon="3.00526">
        <ele>729</ele>
        <time>2026-07-02T08:16:26.000Z</time>
      </trkpt>
      <trkpt lat="44.88986" lon="3.0054">
        <ele>730</ele>
        <time>2026-07-02T08:16:49.000Z</time>
      </trkpt>
      <trkpt lat="44.88986" lon="3.00557">
        <ele>733</ele>
        <time>2026-07-02T08:17:33.000Z</time>
      </trkpt>
      <trkpt lat="44.88993" lon="3.00565">
        <ele>736</ele>
        <time>2026-07-02T08:18:14.000Z</time>
      </trkpt>
      <trkpt lat="44.88999" lon="3.00567">
        <ele>736</ele>
        <time>2026-07-02T08:18:21.000Z</time>
      </trkpt>
      <trkpt lat="44.89033" lon="3.00564">
        <ele>730</ele>
        <time>2026-07-02T08:19:00.000Z</time>
      </trkpt>
      <trkpt lat="44.89046" lon="3.00564">
        <ele>729</ele>
        <time>2026-07-02T08:19:16.000Z</time>
      </trkpt>
      <trkpt lat="44.89076" lon="3.00574">
        <ele>728</ele>
        <time>2026-07-02T08:19:50.000Z</time>
      </trkpt>
      <trkpt lat="44.89144" lon="3.00637">
        <ele>730</ele>
        <time>2026-07-02T08:21:45.000Z</time>
      </trkpt>
      <trkpt lat="44.8916" lon="3.00687">
        <ele>737</ele>
        <time>2026-07-02T08:23:42.000Z</time>
      </trkpt>
      <trkpt lat="44.89158" lon="3.00694">
        <ele>738</ele>
        <time>2026-07-02T08:23:58.000Z</time>
      </trkpt>
      <trkpt lat="44.8915" lon="3.00697">
        <ele>739</ele>
        <time>2026-07-02T08:24:17.000Z</time>
      </trkpt>
      <trkpt lat="44.8912" lon="3.00689">
        <ele>740</ele>
        <time>2026-07-02T08:25:02.000Z</time>
      </trkpt>
      <trkpt lat="44.8911" lon="3.00692">
        <ele>741</ele>
        <time>2026-07-02T08:25:24.000Z</time>
      </trkpt>
      <trkpt lat="44.89097" lon="3.00704">
        <ele>742</ele>
        <time>2026-07-02T08:25:53.000Z</time>
      </trkpt>
      <trkpt lat="44.89091" lon="3.00717">
        <ele>744</ele>
        <time>2026-07-02T08:26:26.000Z</time>
      </trkpt>
      <trkpt lat="44.89086" lon="3.00733">
        <ele>743</ele>
        <time>2026-07-02T08:26:40.000Z</time>
      </trkpt>
      <trkpt lat="44.89085" lon="3.00768">
        <ele>745</ele>
        <time>2026-07-02T08:27:29.000Z</time>
      </trkpt>
      <trkpt lat="44.89102" lon="3.00854">
        <ele>750</ele>
        <time>2026-07-02T08:29:33.000Z</time>
      </trkpt>
      <trkpt lat="44.89098" lon="3.00897">
        <ele>755</ele>
        <time>2026-07-02T08:30:59.000Z</time>
      </trkpt>
      <trkpt lat="44.89088" lon="3.00924">
        <ele>760</ele>
        <time>2026-07-02T08:32:16.000Z</time>
      </trkpt>
      <trkpt lat="44.89044" lon="3.01009">
        <ele>771</ele>
        <time>2026-07-02T08:35:34.000Z</time>
      </trkpt>
      <trkpt lat="44.89012" lon="3.01057">
        <ele>776</ele>
        <time>2026-07-02T08:37:19.000Z</time>
      </trkpt>
      <trkpt lat="44.88997" lon="3.01072">
        <ele>779</ele>
        <time>2026-07-02T08:38:11.000Z</time>
      </trkpt>
      <trkpt lat="44.88984" lon="3.01087">
        <ele>781</ele>
        <time>2026-07-02T08:38:50.000Z</time>
      </trkpt>
      <trkpt lat="44.88952" lon="3.01108">
        <ele>787</ele>
        <time>2026-07-02T08:40:33.000Z</time>
      </trkpt>
      <trkpt lat="44.88933" lon="3.01115">
        <ele>790</ele>
        <time>2026-07-02T08:41:26.000Z</time>
      </trkpt>
      <trkpt lat="44.88906" lon="3.01115">
        <ele>797</ele>
        <time>2026-07-02T08:43:09.000Z</time>
      </trkpt>
      <trkpt lat="44.88874" lon="3.01122">
        <ele>803</ele>
        <time>2026-07-02T08:44:48.000Z</time>
      </trkpt>
      <trkpt lat="44.88858" lon="3.01129">
        <ele>802</ele>
        <time>2026-07-02T08:45:06.000Z</time>
      </trkpt>
      <trkpt lat="44.88807" lon="3.0116">
        <ele>808</ele>
        <time>2026-07-02T08:47:12.000Z</time>
      </trkpt>
      <trkpt lat="44.88763" lon="3.01198">
        <ele>810</ele>
        <time>2026-07-02T08:48:31.000Z</time>
      </trkpt>
      <trkpt lat="44.88711" lon="3.01223">
        <ele>819</ele>
        <time>2026-07-02T08:51:06.000Z</time>
      </trkpt>
      <trkpt lat="44.88694" lon="3.01229">
        <ele>820</ele>
        <time>2026-07-02T08:51:36.000Z</time>
      </trkpt>
      <trkpt lat="44.8866" lon="3.01223">
        <ele>821</ele>
        <time>2026-07-02T08:52:26.000Z</time>
      </trkpt>
      <trkpt lat="44.88645" lon="3.01223">
        <ele>821</ele>
        <time>2026-07-02T08:52:43.000Z</time>
      </trkpt>
      <trkpt lat="44.88638" lon="3.01227">
        <ele>822</ele>
        <time>2026-07-02T08:53:02.000Z</time>
      </trkpt>
      <trkpt lat="44.88638" lon="3.01227">
        <ele>822</ele>
        <time>2026-07-02T08:53:02.000Z</time>
      </trkpt>
      <trkpt lat="44.88633" lon="3.01236">
        <ele>824</ele>
        <time>2026-07-02T08:53:32.000Z</time>
      </trkpt>
      <trkpt lat="44.88631" lon="3.01261">
        <ele>825</ele>
        <time>2026-07-02T08:54:03.000Z</time>
      </trkpt>
      <trkpt lat="44.88617" lon="3.01307">
        <ele>828</ele>
        <time>2026-07-02T08:55:14.000Z</time>
      </trkpt>
      <trkpt lat="44.88602" lon="3.01336">
        <ele>832</ele>
        <time>2026-07-02T08:56:24.000Z</time>
      </trkpt>
      <trkpt lat="44.88568" lon="3.01349">
        <ele>837</ele>
        <time>2026-07-02T08:57:55.000Z</time>
      </trkpt>
      <trkpt lat="44.88533" lon="3.01351">
        <ele>847</ele>
        <time>2026-07-02T09:00:18.000Z</time>
      </trkpt>
      <trkpt lat="44.88529" lon="3.01411">
        <ele>841</ele>
        <time>2026-07-02T09:01:06.000Z</time>
      </trkpt>
      <trkpt lat="44.88524" lon="3.01437">
        <ele>844</ele>
        <time>2026-07-02T09:01:59.000Z</time>
      </trkpt>
      <trkpt lat="44.88503" lon="3.01472">
        <ele>849</ele>
        <time>2026-07-02T09:03:27.000Z</time>
      </trkpt>
      <trkpt lat="44.88493" lon="3.01499">
        <ele>852</ele>
        <time>2026-07-02T09:04:23.000Z</time>
      </trkpt>
      <trkpt lat="44.8848" lon="3.01514">
        <ele>854</ele>
        <time>2026-07-02T09:05:03.000Z</time>
      </trkpt>
      <trkpt lat="44.88481" lon="3.01516">
        <ele>854</ele>
        <time>2026-07-02T08:28:07.000Z</time>
      </trkpt>
      <trkpt lat="44.8846" lon="3.01528">
        <ele>856</ele>
        <time>2026-07-02T08:28:31.000Z</time>
      </trkpt>
      <trkpt lat="44.88439" lon="3.01541">
        <ele>858</ele>
        <time>2026-07-02T08:29:01.000Z</time>
      </trkpt>
      <trkpt lat="44.88417" lon="3.01557">
        <ele>859</ele>
        <time>2026-07-02T08:29:28.000Z</time>
      </trkpt>
      <trkpt lat="44.88399" lon="3.01575">
        <ele>862</ele>
        <time>2026-07-02T08:29:43.000Z</time>
      </trkpt>
      <trkpt lat="44.88378" lon="3.01582">
        <ele>865</ele>
        <time>2026-07-02T08:30:16.000Z</time>
      </trkpt>
      <trkpt lat="44.88354" lon="3.01589">
        <ele>869</ele>
        <time>2026-07-02T08:30:46.000Z</time>
      </trkpt>
      <trkpt lat="44.8833" lon="3.01592">
        <ele>871</ele>
        <time>2026-07-02T08:31:19.000Z</time>
      </trkpt>
      <trkpt lat="44.88307" lon="3.01591">
        <ele>874</ele>
        <time>2026-07-02T08:31:43.000Z</time>
      </trkpt>
      <trkpt lat="44.88284" lon="3.01591">
        <ele>875</ele>
        <time>2026-07-02T08:32:22.000Z</time>
      </trkpt>
      <trkpt lat="44.88261" lon="3.01585">
        <ele>875</ele>
        <time>2026-07-02T08:32:46.000Z</time>
      </trkpt>
      <trkpt lat="44.88243" lon="3.01566">
        <ele>875</ele>
        <time>2026-07-02T08:33:22.000Z</time>
      </trkpt>
      <trkpt lat="44.88222" lon="3.01554">
        <ele>873</ele>
        <time>2026-07-02T08:33:43.000Z</time>
      </trkpt>
      <trkpt lat="44.882" lon="3.01546">
        <ele>871</ele>
        <time>2026-07-02T08:34:01.000Z</time>
      </trkpt>
      <trkpt lat="44.88179" lon="3.01535">
        <ele>867</ele>
        <time>2026-07-02T08:34:25.000Z</time>
      </trkpt>
      <trkpt lat="44.88157" lon="3.01526">
        <ele>864</ele>
        <time>2026-07-02T08:35:04.000Z</time>
      </trkpt>
      <trkpt lat="44.88137" lon="3.01515">
        <ele>859</ele>
        <time>2026-07-02T08:35:22.000Z</time>
      </trkpt>
      <trkpt lat="44.88115" lon="3.01511">
        <ele>857</ele>
        <time>2026-07-02T08:35:52.000Z</time>
      </trkpt>
      <trkpt lat="44.88097" lon="3.0149">
        <ele>855</ele>
        <time>2026-07-02T08:36:16.000Z</time>
      </trkpt>
      <trkpt lat="44.88079" lon="3.01474">
        <ele>852</ele>
        <time>2026-07-02T08:36:31.000Z</time>
      </trkpt>
      <trkpt lat="44.8808" lon="3.01477">
        <ele>852</ele>
        <time>2026-07-02T08:36:34.000Z</time>
      </trkpt>
      <trkpt lat="44.88068" lon="3.01488">
        <ele>850</ele>
        <time>2026-07-02T08:36:49.000Z</time>
      </trkpt>
      <trkpt lat="44.88059" lon="3.0149">
        <ele>849</ele>
        <time>2026-07-02T08:37:00.000Z</time>
      </trkpt>
      <trkpt lat="44.88045" lon="3.01526">
        <ele>847</ele>
        <time>2026-07-02T08:37:34.000Z</time>
      </trkpt>
      <trkpt lat="44.88032" lon="3.01539">
        <ele>847</ele>
        <time>2026-07-02T08:37:51.000Z</time>
      </trkpt>
      <trkpt lat="44.88019" lon="3.01543">
        <ele>847</ele>
        <time>2026-07-02T08:38:06.000Z</time>
      </trkpt>
      <trkpt lat="44.87991" lon="3.01542">
        <ele>845</ele>
        <time>2026-07-02T08:38:39.000Z</time>
      </trkpt>
      <trkpt lat="44.87965" lon="3.01535">
        <ele>845</ele>
        <time>2026-07-02T08:39:09.000Z</time>
      </trkpt>
      <trkpt lat="44.87948" lon="3.01526">
        <ele>844</ele>
        <time>2026-07-02T08:39:30.000Z</time>
      </trkpt>
      <trkpt lat="44.87942" lon="3.01524">
        <ele>844</ele>
        <time>2026-07-02T08:39:36.000Z</time>
      </trkpt>
      <trkpt lat="44.87942" lon="3.01524">
        <ele>844</ele>
        <time>2026-07-02T08:39:36.000Z</time>
      </trkpt>
      <trkpt lat="44.87948" lon="3.01526">
        <ele>844</ele>
        <time>2026-07-02T08:39:42.000Z</time>
      </trkpt>
      <trkpt lat="44.8781" lon="3.014">
        <ele>832</ele>
        <time>2026-07-02T08:42:50.000Z</time>
      </trkpt>
      <trkpt lat="44.87775" lon="3.01368">
        <ele>832</ele>
        <time>2026-07-02T08:43:37.000Z</time>
      </trkpt>
      <trkpt lat="44.87704" lon="3.01275">
        <ele>822</ele>
        <time>2026-07-02T08:45:29.000Z</time>
      </trkpt>
      <trkpt lat="44.87674" lon="3.01246">
        <ele>819</ele>
        <time>2026-07-02T08:46:10.000Z</time>
      </trkpt>
      <trkpt lat="44.87594" lon="3.01182">
        <ele>805</ele>
        <time>2026-07-02T08:47:56.000Z</time>
      </trkpt>
      <trkpt lat="44.87531" lon="3.01118">
        <ele>796</ele>
        <time>2026-07-02T08:49:25.000Z</time>
      </trkpt>
      <trkpt lat="44.87512" lon="3.01094">
        <ele>794</ele>
        <time>2026-07-02T08:49:55.000Z</time>
      </trkpt>
      <trkpt lat="44.87471" lon="3.01027">
        <ele>787</ele>
        <time>2026-07-02T08:51:06.000Z</time>
      </trkpt>
      <trkpt lat="44.87455" lon="3.01016">
        <ele>784</ele>
        <time>2026-07-02T08:51:26.000Z</time>
      </trkpt>
      <trkpt lat="44.87447" lon="3.0098">
        <ele>784</ele>
        <time>2026-07-02T08:51:57.000Z</time>
      </trkpt>
      <trkpt lat="44.87411" lon="3.00908">
        <ele>783</ele>
        <time>2026-07-02T08:53:09.000Z</time>
      </trkpt>
      <trkpt lat="44.874" lon="3.00894">
        <ele>783</ele>
        <time>2026-07-02T08:53:25.000Z</time>
      </trkpt>
      <trkpt lat="44.87401" lon="3.00892">
        <ele>783</ele>
        <time>2026-07-02T09:30:02.000Z</time>
      </trkpt>
      <trkpt lat="44.874" lon="3.00895">
        <ele>783</ele>
        <time>2026-07-02T09:30:04.000Z</time>
      </trkpt>
      <trkpt lat="44.87411" lon="3.00908">
        <ele>783</ele>
        <time>2026-07-02T09:30:20.000Z</time>
      </trkpt>
      <trkpt lat="44.87447" lon="3.00981">
        <ele>784</ele>
        <time>2026-07-02T09:31:42.000Z</time>
      </trkpt>
      <trkpt lat="44.87455" lon="3.01017">
        <ele>784</ele>
        <time>2026-07-02T09:32:13.000Z</time>
      </trkpt>
      <trkpt lat="44.87451" lon="3.01029">
        <ele>783</ele>
        <time>2026-07-02T09:32:25.000Z</time>
      </trkpt>
      <trkpt lat="44.87439" lon="3.01078">
        <ele>777</ele>
        <time>2026-07-02T09:33:07.000Z</time>
      </trkpt>
      <trkpt lat="44.87442" lon="3.01129">
        <ele>772</ele>
        <time>2026-07-02T09:33:49.000Z</time>
      </trkpt>
      <trkpt lat="44.8744" lon="3.01157">
        <ele>769</ele>
        <time>2026-07-02T09:34:12.000Z</time>
      </trkpt>
      <trkpt lat="44.87444" lon="3.01186">
        <ele>767</ele>
        <time>2026-07-02T09:34:36.000Z</time>
      </trkpt>
      <trkpt lat="44.87437" lon="3.01249">
        <ele>763</ele>
        <time>2026-07-02T09:35:28.000Z</time>
      </trkpt>
      <trkpt lat="44.87433" lon="3.01329">
        <ele>755</ele>
        <time>2026-07-02T09:36:34.000Z</time>
      </trkpt>
      <trkpt lat="44.87421" lon="3.01411">
        <ele>748</ele>
        <time>2026-07-02T09:37:41.000Z</time>
      </trkpt>
      <trkpt lat="44.87425" lon="3.01458">
        <ele>745</ele>
        <time>2026-07-02T09:38:19.000Z</time>
      </trkpt>
      <trkpt lat="44.87436" lon="3.01519">
        <ele>741</ele>
        <time>2026-07-02T09:39:11.000Z</time>
      </trkpt>
      <trkpt lat="44.87435" lon="3.01527">
        <ele>741</ele>
        <time>2026-07-02T09:39:17.000Z</time>
      </trkpt>
      <trkpt lat="44.87427" lon="3.01532">
        <ele>740</ele>
        <time>2026-07-02T09:39:27.000Z</time>
      </trkpt>
      <trkpt lat="44.87421" lon="3.01529">
        <ele>739</ele>
        <time>2026-07-02T09:39:34.000Z</time>
      </trkpt>
      <trkpt lat="44.87421" lon="3.01529">
        <ele>739</ele>
        <time>2026-07-02T09:39:34.000Z</time>
      </trkpt>
      <trkpt lat="44.87405" lon="3.01513">
        <ele>743</ele>
        <time>2026-07-02T09:40:37.000Z</time>
      </trkpt>
      <trkpt lat="44.87355" lon="3.01444">
        <ele>752</ele>
        <time>2026-07-02T09:43:30.000Z</time>
      </trkpt>
      <trkpt lat="44.87329" lon="3.01329">
        <ele>760</ele>
        <time>2026-07-02T09:46:31.000Z</time>
      </trkpt>
      <trkpt lat="44.87312" lon="3.01289">
        <ele>764</ele>
        <time>2026-07-02T09:47:50.000Z</time>
      </trkpt>
      <trkpt lat="44.87291" lon="3.01253">
        <ele>766</ele>
        <time>2026-07-02T09:48:48.000Z</time>
      </trkpt>
      <trkpt lat="44.87278" lon="3.01237">
        <ele>768</ele>
        <time>2026-07-02T09:49:28.000Z</time>
      </trkpt>
      <trkpt lat="44.87242" lon="3.01222">
        <ele>772</ele>
        <time>2026-07-02T09:50:51.000Z</time>
      </trkpt>
      <trkpt lat="44.87223" lon="3.01189">
        <ele>771</ele>
        <time>2026-07-02T09:51:26.000Z</time>
      </trkpt>
      <trkpt lat="44.87204" lon="3.01173">
        <ele>775</ele>
        <time>2026-07-02T09:52:33.000Z</time>
      </trkpt>
      <trkpt lat="44.87177" lon="3.01166">
        <ele>783</ele>
        <time>2026-07-02T09:54:27.000Z</time>
      </trkpt>
      <trkpt lat="44.87177" lon="3.01166">
        <ele>783</ele>
        <time>2026-07-02T09:54:27.000Z</time>
      </trkpt>
      <trkpt lat="44.87177" lon="3.01166">
        <ele>783</ele>
        <time>2026-07-02T09:54:27.000Z</time>
      </trkpt>
      <trkpt lat="44.87148" lon="3.01167">
        <ele>785</ele>
        <time>2026-07-02T09:55:21.000Z</time>
      </trkpt>
      <trkpt lat="44.87136" lon="3.01172">
        <ele>787</ele>
        <time>2026-07-02T09:55:56.000Z</time>
      </trkpt>
      <trkpt lat="44.87086" lon="3.01237">
        <ele>795</ele>
        <time>2026-07-02T09:58:36.000Z</time>
      </trkpt>
      <trkpt lat="44.87055" lon="3.01263">
        <ele>796</ele>
        <time>2026-07-02T09:59:27.000Z</time>
      </trkpt>
      <trkpt lat="44.87039" lon="3.01284">
        <ele>797</ele>
        <time>2026-07-02T10:00:02.000Z</time>
      </trkpt>
      <trkpt lat="44.87025" lon="3.01311">
        <ele>797</ele>
        <time>2026-07-02T10:00:29.000Z</time>
      </trkpt>
      <trkpt lat="44.86935" lon="3.01377">
        <ele>788</ele>
        <time>2026-07-02T10:02:26.000Z</time>
      </trkpt>
      <trkpt lat="44.86894" lon="3.01447">
        <ele>784</ele>
        <time>2026-07-02T10:03:39.000Z</time>
      </trkpt>
      <trkpt lat="44.86852" lon="3.01505">
        <ele>778</ele>
        <time>2026-07-02T10:04:46.000Z</time>
      </trkpt>
      <trkpt lat="44.86824" lon="3.01565">
        <ele>774</ele>
        <time>2026-07-02T10:05:45.000Z</time>
      </trkpt>
      <trkpt lat="44.86816" lon="3.01612">
        <ele>771</ele>
        <time>2026-07-02T10:06:24.000Z</time>
      </trkpt>
      <trkpt lat="44.86808" lon="3.01633">
        <ele>769</ele>
        <time>2026-07-02T10:06:43.000Z</time>
      </trkpt>
      <trkpt lat="44.86793" lon="3.0165">
        <ele>768</ele>
        <time>2026-07-02T10:07:05.000Z</time>
      </trkpt>
      <trkpt lat="44.86786" lon="3.01655">
        <ele>766</ele>
        <time>2026-07-02T10:07:14.000Z</time>
      </trkpt>
      <trkpt lat="44.86766" lon="3.01656">
        <ele>765</ele>
        <time>2026-07-02T10:07:37.000Z</time>
      </trkpt>
      <trkpt lat="44.86766" lon="3.01656">
        <ele>765</ele>
        <time>2026-07-02T10:07:37.000Z</time>
      </trkpt>
      <trkpt lat="44.86746" lon="3.01649">
        <ele>763</ele>
        <time>2026-07-02T10:08:01.000Z</time>
      </trkpt>
      <trkpt lat="44.86709" lon="3.01626">
        <ele>759</ele>
        <time>2026-07-02T10:08:47.000Z</time>
      </trkpt>
      <trkpt lat="44.86655" lon="3.01626">
        <ele>755</ele>
        <time>2026-07-02T10:09:50.000Z</time>
      </trkpt>
      <trkpt lat="44.86645" lon="3.01621">
        <ele>754</ele>
        <time>2026-07-02T10:10:02.000Z</time>
      </trkpt>
      <trkpt lat="44.86634" lon="3.01603">
        <ele>753</ele>
        <time>2026-07-02T10:10:22.000Z</time>
      </trkpt>
      <trkpt lat="44.8663" lon="3.01606">
        <ele>753</ele>
        <time>2026-07-02T09:59:21.000Z</time>
      </trkpt>
      <trkpt lat="44.86621" lon="3.01577">
        <ele>752</ele>
        <time>2026-07-02T09:59:39.000Z</time>
      </trkpt>
      <trkpt lat="44.8662" lon="3.01543">
        <ele>747</ele>
        <time>2026-07-02T10:00:00.000Z</time>
      </trkpt>
      <trkpt lat="44.86614" lon="3.01511">
        <ele>744</ele>
        <time>2026-07-02T10:00:21.000Z</time>
      </trkpt>
      <trkpt lat="44.86601" lon="3.01482">
        <ele>741</ele>
        <time>2026-07-02T10:01:30.000Z</time>
      </trkpt>
      <trkpt lat="44.86586" lon="3.0145">
        <ele>739</ele>
        <time>2026-07-02T10:01:48.000Z</time>
      </trkpt>
      <trkpt lat="44.86561" lon="3.01395">
        <ele>738</ele>
        <time>2026-07-02T10:02:36.000Z</time>
      </trkpt>
      <trkpt lat="44.86545" lon="3.01363">
        <ele>736</ele>
        <time>2026-07-02T10:03:15.000Z</time>
      </trkpt>
      <trkpt lat="44.86527" lon="3.01326">
        <ele>734</ele>
        <time>2026-07-02T10:03:24.000Z</time>
      </trkpt>
      <trkpt lat="44.86507" lon="3.01306">
        <ele>731</ele>
        <time>2026-07-02T10:03:42.000Z</time>
      </trkpt>
      <trkpt lat="44.86485" lon="3.01298">
        <ele>729</ele>
        <time>2026-07-02T10:04:00.000Z</time>
      </trkpt>
      <trkpt lat="44.86462" lon="3.013">
        <ele>726</ele>
        <time>2026-07-02T10:04:21.000Z</time>
      </trkpt>
      <trkpt lat="44.86437" lon="3.01312">
        <ele>725</ele>
        <time>2026-07-02T10:04:42.000Z</time>
      </trkpt>
      <trkpt lat="44.86421" lon="3.01334">
        <ele>723</ele>
        <time>2026-07-02T10:05:03.000Z</time>
      </trkpt>
      <trkpt lat="44.86409" lon="3.01365">
        <ele>719</ele>
        <time>2026-07-02T10:05:30.000Z</time>
      </trkpt>
      <trkpt lat="44.86395" lon="3.01393">
        <ele>718</ele>
        <time>2026-07-02T10:05:45.000Z</time>
      </trkpt>
      <trkpt lat="44.86377" lon="3.01416">
        <ele>714</ele>
        <time>2026-07-02T10:06:09.000Z</time>
      </trkpt>
      <trkpt lat="44.86362" lon="3.01438">
        <ele>714</ele>
        <time>2026-07-02T10:06:30.000Z</time>
      </trkpt>
      <trkpt lat="44.86341" lon="3.01453">
        <ele>713</ele>
        <time>2026-07-02T10:06:51.000Z</time>
      </trkpt>
      <trkpt lat="44.86343" lon="3.01461">
        <ele>713</ele>
        <time>2026-07-02T10:06:57.000Z</time>
      </trkpt>
      <trkpt lat="44.86314" lon="3.01462">
        <ele>711</ele>
        <time>2026-07-02T10:07:29.000Z</time>
      </trkpt>
      <trkpt lat="44.8631" lon="3.01486">
        <ele>711</ele>
        <time>2026-07-02T10:07:49.000Z</time>
      </trkpt>
      <trkpt lat="44.86301" lon="3.01499">
        <ele>709</ele>
        <time>2026-07-02T10:08:04.000Z</time>
      </trkpt>
      <trkpt lat="44.8629" lon="3.01499">
        <ele>708</ele>
        <time>2026-07-02T10:08:16.000Z</time>
      </trkpt>
      <trkpt lat="44.86268" lon="3.0149">
        <ele>709</ele>
        <time>2026-07-02T10:08:53.000Z</time>
      </trkpt>
      <trkpt lat="44.8624" lon="3.01492">
        <ele>714</ele>
        <time>2026-07-02T10:10:16.000Z</time>
      </trkpt>
      <trkpt lat="44.86212" lon="3.01494">
        <ele>714</ele>
        <time>2026-07-02T10:10:48.000Z</time>
      </trkpt>
      <trkpt lat="44.86193" lon="3.0149">
        <ele>714</ele>
        <time>2026-07-02T10:11:11.000Z</time>
      </trkpt>
      <trkpt lat="44.86185" lon="3.01484">
        <ele>710</ele>
        <time>2026-07-02T10:11:21.000Z</time>
      </trkpt>
      <trkpt lat="44.86185" lon="3.01484">
        <ele>710</ele>
        <time>2026-07-02T10:11:21.000Z</time>
      </trkpt>
      <trkpt lat="44.8616" lon="3.01465">
        <ele>713</ele>
        <time>2026-07-02T10:12:25.000Z</time>
      </trkpt>
      <trkpt lat="44.86145" lon="3.01442">
        <ele>715</ele>
        <time>2026-07-02T10:13:11.000Z</time>
      </trkpt>
      <trkpt lat="44.86132" lon="3.01414">
        <ele>714</ele>
        <time>2026-07-02T10:13:38.000Z</time>
      </trkpt>
      <trkpt lat="44.86119" lon="3.01361">
        <ele>717</ele>
        <time>2026-07-02T10:14:54.000Z</time>
      </trkpt>
      <trkpt lat="44.86108" lon="3.01336">
        <ele>718</ele>
        <time>2026-07-02T10:15:29.000Z</time>
      </trkpt>
      <trkpt lat="44.86089" lon="3.01315">
        <ele>719</ele>
        <time>2026-07-02T10:16:06.000Z</time>
      </trkpt>
      <trkpt lat="44.86091" lon="3.01312">
        <ele>717</ele>
        <time>2026-07-02T10:13:21.000Z</time>
      </trkpt>
      <trkpt lat="44.86089" lon="3.01315">
        <ele>719</ele>
        <time>2026-07-02T10:13:45.000Z</time>
      </trkpt>
      <trkpt lat="44.86076" lon="3.01301">
        <ele>721</ele>
        <time>2026-07-02T10:14:25.000Z</time>
      </trkpt>
      <trkpt lat="44.86063" lon="3.01297">
        <ele>721</ele>
        <time>2026-07-02T10:14:40.000Z</time>
      </trkpt>
      <trkpt lat="44.86026" lon="3.01305">
        <ele>724</ele>
        <time>2026-07-02T10:15:53.000Z</time>
      </trkpt>
      <trkpt lat="44.85981" lon="3.01301">
        <ele>718</ele>
        <time>2026-07-02T10:16:45.000Z</time>
      </trkpt>
      <trkpt lat="44.85964" lon="3.01274">
        <ele>717</ele>
        <time>2026-07-02T10:17:14.000Z</time>
      </trkpt>
      <trkpt lat="44.85935" lon="3.0125">
        <ele>717</ele>
        <time>2026-07-02T10:17:52.000Z</time>
      </trkpt>
      <trkpt lat="44.85908" lon="3.01217">
        <ele>719</ele>
        <time>2026-07-02T10:18:54.000Z</time>
      </trkpt>
      <trkpt lat="44.85908" lon="3.01217">
        <ele>719</ele>
        <time>2026-07-02T10:18:54.000Z</time>
      </trkpt>
      <trkpt lat="44.85894" lon="3.0119">
        <ele>718</ele>
        <time>2026-07-02T10:19:21.000Z</time>
      </trkpt>
      <trkpt lat="44.85892" lon="3.01153">
        <ele>717</ele>
        <time>2026-07-02T10:19:51.000Z</time>
      </trkpt>
      <trkpt lat="44.85894" lon="3.01127">
        <ele>718</ele>
        <time>2026-07-02T10:20:23.000Z</time>
      </trkpt>
      <trkpt lat="44.85903" lon="3.0112">
        <ele>719</ele>
        <time>2026-07-02T10:20:45.000Z</time>
      </trkpt>
      <trkpt lat="44.85903" lon="3.01047">
        <ele>721</ele>
        <time>2026-07-02T10:22:04.000Z</time>
      </trkpt>
      <trkpt lat="44.85897" lon="3.01027">
        <ele>722</ele>
        <time>2026-07-02T10:22:32.000Z</time>
      </trkpt>
      <trkpt lat="44.85886" lon="3.01004">
        <ele>723</ele>
        <time>2026-07-02T10:23:05.000Z</time>
      </trkpt>
      <trkpt lat="44.8587" lon="3.00991">
        <ele>723</ele>
        <time>2026-07-02T10:23:26.000Z</time>
      </trkpt>
      <trkpt lat="44.85872" lon="3.00986">
        <ele>726</ele>
        <time>2026-07-02T10:26:24.000Z</time>
      </trkpt>
      <trkpt lat="44.85853" lon="3.00968">
        <ele>725</ele>
        <time>2026-07-02T10:26:51.000Z</time>
      </trkpt>
      <trkpt lat="44.85834" lon="3.0095">
        <ele>736</ele>
        <time>2026-07-02T10:27:27.000Z</time>
      </trkpt>
      <trkpt lat="44.85813" lon="3.00935">
        <ele>739</ele>
        <time>2026-07-02T10:28:03.000Z</time>
      </trkpt>
      <trkpt lat="44.8579" lon="3.00941">
        <ele>744</ele>
        <time>2026-07-02T10:28:36.000Z</time>
      </trkpt>
      <trkpt lat="44.85769" lon="3.00954">
        <ele>749</ele>
        <time>2026-07-02T10:29:54.000Z</time>
      </trkpt>
      <trkpt lat="44.85767" lon="3.00955">
        <ele>749</ele>
        <time>2026-07-02T10:28:54.000Z</time>
      </trkpt>
      <trkpt lat="44.85745" lon="3.00951">
        <ele>752</ele>
        <time>2026-07-02T10:29:30.000Z</time>
      </trkpt>
      <trkpt lat="44.85727" lon="3.00932">
        <ele>754</ele>
        <time>2026-07-02T10:30:03.000Z</time>
      </trkpt>
      <trkpt lat="44.8572" lon="3.00928">
        <ele>754</ele>
        <time>2026-07-02T10:30:12.000Z</time>
      </trkpt>
      <trkpt lat="44.85707" lon="3.00918">
        <ele>757</ele>
        <time>2026-07-02T10:30:24.000Z</time>
      </trkpt>
      <trkpt lat="44.85686" lon="3.00905">
        <ele>760</ele>
        <time>2026-07-02T10:31:06.000Z</time>
      </trkpt>
      <trkpt lat="44.85679" lon="3.00886">
        <ele>760</ele>
        <time>2026-07-02T10:31:24.000Z</time>
      </trkpt>
      <trkpt lat="44.85676" lon="3.00878">
        <ele>760</ele>
        <time>2026-07-02T10:31:39.000Z</time>
      </trkpt>
      <trkpt lat="44.85676" lon="3.00843">
        <ele>758</ele>
        <time>2026-07-02T10:33:24.000Z</time>
      </trkpt>
      <trkpt lat="44.85676" lon="3.00842">
        <ele>758</ele>
        <time>2026-07-02T10:33:25.000Z</time>
      </trkpt>
      <trkpt lat="44.85676" lon="3.00841">
        <ele>758</ele>
        <time>2026-07-02T10:33:25.000Z</time>
      </trkpt>
      <trkpt lat="44.85684" lon="3.00786">
        <ele>757</ele>
        <time>2026-07-02T10:34:11.000Z</time>
      </trkpt>
      <trkpt lat="44.85683" lon="3.00767">
        <ele>756</ele>
        <time>2026-07-02T10:34:26.000Z</time>
      </trkpt>
      <trkpt lat="44.85654" lon="3.00696">
        <ele>753</ele>
        <time>2026-07-02T10:35:33.000Z</time>
      </trkpt>
      <trkpt lat="44.85623" lon="3.00641">
        <ele>749</ele>
        <time>2026-07-02T10:36:30.000Z</time>
      </trkpt>
      <trkpt lat="44.85623" lon="3.00641">
        <ele>749</ele>
        <time>2026-07-02T10:36:30.000Z</time>
      </trkpt>
      <trkpt lat="44.85609" lon="3.00629">
        <ele>748</ele>
        <time>2026-07-02T10:36:49.000Z</time>
      </trkpt>
      <trkpt lat="44.85601" lon="3.00617">
        <ele>748</ele>
        <time>2026-07-02T10:37:03.000Z</time>
      </trkpt>
      <trkpt lat="44.85567" lon="3.00586">
        <ele>746</ele>
        <time>2026-07-02T10:37:49.000Z</time>
      </trkpt>
      <trkpt lat="44.85552" lon="3.00546">
        <ele>747</ele>
        <time>2026-07-02T10:38:36.000Z</time>
      </trkpt>
      <trkpt lat="44.85552" lon="3.00546">
        <ele>747</ele>
        <time>2026-07-02T10:38:36.000Z</time>
      </trkpt>
      <trkpt lat="44.85552" lon="3.00546">
        <ele>747</ele>
        <time>2026-07-02T10:38:36.000Z</time>
      </trkpt>
      <trkpt lat="44.85546" lon="3.00522">
        <ele>747</ele>
        <time>2026-07-02T10:38:57.000Z</time>
      </trkpt>
      <trkpt lat="44.85546" lon="3.00522">
        <ele>747</ele>
        <time>2026-07-02T10:38:57.000Z</time>
      </trkpt>
      <trkpt lat="44.85515" lon="3.00442">
        <ele>750</ele>
        <time>2026-07-02T10:40:42.000Z</time>
      </trkpt>
      <trkpt lat="44.85499" lon="3.00421">
        <ele>751</ele>
        <time>2026-07-02T10:41:17.000Z</time>
      </trkpt>
      <trkpt lat="44.85491" lon="3.00416">
        <ele>751</ele>
        <time>2026-07-02T10:41:27.000Z</time>
      </trkpt>
      <trkpt lat="44.85491" lon="3.00416">
        <ele>751</ele>
        <time>2026-07-02T10:41:27.000Z</time>
      </trkpt>
      <trkpt lat="44.85467" lon="3.00399">
        <ele>752</ele>
        <time>2026-07-02T10:42:08.000Z</time>
      </trkpt>
      <trkpt lat="44.85433" lon="3.00384">
        <ele>752</ele>
        <time>2026-07-02T10:42:49.000Z</time>
      </trkpt>
      <trkpt lat="44.85433" lon="3.00383">
        <ele>752</ele>
        <time>2026-07-02T10:42:50.000Z</time>
      </trkpt>
      <trkpt lat="44.85413" lon="3.00375">
        <ele>753</ele>
        <time>2026-07-02T10:43:24.000Z</time>
      </trkpt>
      <trkpt lat="44.85343" lon="3.00325">
        <ele>755</ele>
        <time>2026-07-02T10:45:15.000Z</time>
      </trkpt>
      <trkpt lat="44.85346" lon="3.00299">
        <ele>757</ele>
        <time>2026-07-02T10:45:57.000Z</time>
      </trkpt>
      <trkpt lat="44.8534" lon="3.00296">
        <ele>757</ele>
        <time>2026-07-02T10:46:04.000Z</time>
      </trkpt>
      <trkpt lat="44.85342" lon="3.0028">
        <ele>759</ele>
        <time>2026-07-02T10:46:38.000Z</time>
      </trkpt>
      <trkpt lat="44.85342" lon="3.0028">
        <ele>759</ele>
        <time>2026-07-02T10:46:38.000Z</time>
      </trkpt>
      <trkpt lat="44.8534" lon="3.00296">
        <ele>757</ele>
        <time>2026-07-02T10:46:51.000Z</time>
      </trkpt>
      <trkpt lat="44.85334" lon="3.00303">
        <ele>756</ele>
        <time>2026-07-02T10:47:00.000Z</time>
      </trkpt>
      <trkpt lat="44.85331" lon="3.00316">
        <ele>755</ele>
        <time>2026-07-02T10:47:12.000Z</time>
      </trkpt>
      <trkpt lat="44.85328" lon="3.00343">
        <ele>754</ele>
        <time>2026-07-02T10:47:34.000Z</time>
      </trkpt>
      <trkpt lat="44.85331" lon="3.0035">
        <ele>754</ele>
        <time>2026-07-02T10:47:41.000Z</time>
      </trkpt>
      <trkpt lat="44.8533" lon="3.00358">
        <ele>754</ele>
        <time>2026-07-02T10:47:48.000Z</time>
      </trkpt>
      <trkpt lat="44.85329" lon="3.00371">
        <ele>753</ele>
        <time>2026-07-02T10:47:59.000Z</time>
      </trkpt>
      <trkpt lat="44.85201" lon="3.00322">
        <ele>759</ele>
        <time>2026-07-02T10:51:32.000Z</time>
      </trkpt>
      <trkpt lat="44.85197" lon="3.00338">
        <ele>759</ele>
        <time>2026-07-02T10:51:46.000Z</time>
      </trkpt>
      <trkpt lat="44.85193" lon="3.00343">
        <ele>759</ele>
        <time>2026-07-02T10:51:53.000Z</time>
      </trkpt>
      <trkpt lat="44.85166" lon="3.0035">
        <ele>758</ele>
        <time>2026-07-02T10:52:25.000Z</time>
      </trkpt>
      <trkpt lat="44.85165" lon="3.0035">
        <ele>758</ele>
        <time>2026-07-02T10:52:25.000Z</time>
      </trkpt>
      <trkpt lat="44.85169" lon="3.00362">
        <ele>756</ele>
        <time>2026-07-02T10:52:36.000Z</time>
      </trkpt>
      <trkpt lat="44.85183" lon="3.00371">
        <ele>754</ele>
        <time>2026-07-02T10:52:54.000Z</time>
      </trkpt>
      <trkpt lat="44.85185" lon="3.00385">
        <ele>756</ele>
        <time>2026-07-02T10:53:26.000Z</time>
      </trkpt>
      <trkpt lat="44.85193" lon="3.00386">
        <ele>756</ele>
        <time>2026-07-02T10:53:35.000Z</time>
      </trkpt>
      <trkpt lat="44.8527" lon="3.00373">
        <ele>753</ele>
        <time>2026-07-02T10:55:04.000Z</time>
      </trkpt>
      <trkpt lat="44.85298" lon="3.00377">
        <ele>753</ele>
        <time>2026-07-02T10:55:37.000Z</time>
      </trkpt>
      <trkpt lat="44.85325" lon="3.00393">
        <ele>753</ele>
        <time>2026-07-02T10:56:10.000Z</time>
      </trkpt>
      <trkpt lat="44.85329" lon="3.00371">
        <ele>753</ele>
        <time>2026-07-02T10:56:28.000Z</time>
      </trkpt>
      <trkpt lat="44.85329" lon="3.00371">
        <ele>753</ele>
        <time>2026-07-02T10:56:28.000Z</time>
      </trkpt>
      <trkpt lat="44.85345" lon="3.00377">
        <ele>751</ele>
        <time>2026-07-02T10:56:48.000Z</time>
      </trkpt>
      <trkpt lat="44.85361" lon="3.0039">
        <ele>750</ele>
        <time>2026-07-02T10:57:08.000Z</time>
      </trkpt>
      <trkpt lat="44.85397" lon="3.00423">
        <ele>750</ele>
        <time>2026-07-02T10:57:58.000Z</time>
      </trkpt>
      <trkpt lat="44.85427" lon="3.00455">
        <ele>749</ele>
        <time>2026-07-02T10:58:41.000Z</time>
      </trkpt>
      <trkpt lat="44.85514" lon="3.00587">
        <ele>744</ele>
        <time>2026-07-02T11:01:07.000Z</time>
      </trkpt>
      <trkpt lat="44.85516" lon="3.00582">
        <ele>744</ele>
        <time>2026-07-02T11:01:12.000Z</time>
      </trkpt>
      <trkpt lat="44.85514" lon="3.00586">
        <ele>744</ele>
        <time>2026-07-02T11:01:16.000Z</time>
      </trkpt>
      <trkpt lat="44.85516" lon="3.00589">
        <ele>744</ele>
        <time>2026-07-02T11:01:19.000Z</time>
      </trkpt>
      <trkpt lat="44.85513" lon="3.00593">
        <ele>744</ele>
        <time>2026-07-02T11:01:24.000Z</time>
      </trkpt>
      <trkpt lat="44.85527" lon="3.00615">
        <ele>745</ele>
        <time>2026-07-02T11:01:59.000Z</time>
      </trkpt>
      <trkpt lat="44.85522" lon="3.00622">
        <ele>745</ele>
        <time>2026-07-02T11:02:08.000Z</time>
      </trkpt>
      <trkpt lat="44.8554" lon="3.00655">
        <ele>745</ele>
        <time>2026-07-02T11:02:41.000Z</time>
      </trkpt>
      <trkpt lat="44.8555" lon="3.00651">
        <ele>745</ele>
        <time>2026-07-02T11:02:54.000Z</time>
      </trkpt>
      <trkpt lat="44.85549" lon="3.00632">
        <ele>745</ele>
        <time>2026-07-02T11:03:10.000Z</time>
      </trkpt>
      <trkpt lat="44.85547" lon="3.00631">
        <ele>745</ele>
        <time>2026-07-02T11:03:12.000Z</time>
      </trkpt>
      <trkpt lat="44.85554" lon="3.00665">
        <ele>744</ele>
        <time>2026-07-02T11:03:41.000Z</time>
      </trkpt>
      <trkpt lat="44.85569" lon="3.00697">
        <ele>744</ele>
        <time>2026-07-02T11:04:12.000Z</time>
      </trkpt>
    </trkseg>
  </trk>
</gpx>